Thompson, Mississippi
Current Conditions -  °F | °C
As of 11:53 AM on Friday 31 Oct 2014 (Local Time) from KMCB Reporting Station
Clear Clear  
Wind Chill: 69°   Ceiling: Unl
Heat Index: 69°   Visibility: 10mi
Dew Point: 45°   Wind: 18mph
Humidity: 42%   Direction: 330°NNW
Pressure: 30.07"   Gusts: 26mph
Location:  31.3682°N, 90.6714°W
Report Text: KMCB 311653Z AUTO 33016G23KT 10SM CLR 21/07 A3007 RMK AO2 SLP179 T02060072
Loading
Personal Weather Stations






























Interactive Weather Map
Tropical Storm Tracking
New forecast layout! Learn more

10-Day Weather Forecast

Advertisements
Track Severe Weather on mobile